Time;durP1;ratioP1;P1;durP2;ratioP2;P2;SDS_P1;SDS_P2;PMS_P1;PMS_P2;Temp;Humidity;BMP_temperature;BMP_pressure;BME280_temperature;BME280_humidity;BME280_pressure;Samples;Min_cycle;Max_cycle;Signal;HPM_P1;HPM_P2
2022/07/04 00:00:48;;;;;;;3.78;0.45;;;20.30;77.90;;;;;;5093473;28;20052;-76
2022/07/04 00:03:14;;;;;;;1.70;0.20;;;20.30;78.00;;;;;;5093440;28;20023;-76
2022/07/04 00:05:40;;;;;;;2.25;0.20;;;20.30;77.90;;;;;;5093802;28;20237;-76
2022/07/04 00:08:05;;;;;;;3.92;0.50;;;20.30;78.00;;;;;;5093726;28;20114;-76
2022/07/04 00:10:31;;;;;;;2.20;0.30;;;20.30;78.00;;;;;;5093175;28;20027;-76
2022/07/04 00:12:57;;;;;;;2.33;0.45;;;20.20;78.00;;;;;;5093740;28;20114;-76
2022/07/04 00:15:23;;;;;;;2.13;0.30;;;20.30;78.00;;;;;;5093126;28;20032;-76
2022/07/04 00:17:50;;;;;;;4.43;0.50;;;20.30;77.80;;;;;;5093149;28;20460;-76
2022/07/04 00:20:16;;;;;;;3.20;0.45;;;20.30;77.70;;;;;;5093241;28;20047;-76
2022/07/04 00:22:41;;;;;;;2.15;0.40;;;20.30;77.80;;;;;;5093156;28;20467;-76
2022/07/04 00:25:08;;;;;;;4.03;0.50;;;20.30;77.70;;;;;;5093398;28;20032;-76
2022/07/04 00:27:33;;;;;;;2.35;0.30;;;20.30;77.60;;;;;;5093285;28;20027;-76
2022/07/04 00:30:00;;;;;;;2.03;0.43;;;20.30;77.60;;;;;;5092955;28;20024;-76
2022/07/04 00:32:26;;;;;;;3.70;0.40;;;20.30;77.70;;;;;;5092981;28;20028;-76
2022/07/04 00:34:51;;;;;;;2.80;0.30;;;20.30;77.80;;;;;;5093138;28;20032;-76
2022/07/04 00:37:17;;;;;;;3.50;0.35;;;20.20;77.60;;;;;;5093258;28;20035;-76
2022/07/04 00:39:43;;;;;;;3.10;0.30;;;20.20;77.60;;;;;;5093063;28;20020;-76
2022/07/04 00:42:09;;;;;;;3.80;0.30;;;20.30;77.60;;;;;;5092948;28;20109;-76
2022/07/04 00:44:38;;;;;;;2.30;0.30;;;20.20;77.60;;;;;;5093225;28;20020;-76
2022/07/04 00:47:07;;;;;;;3.33;0.28;;;20.20;77.60;;;;;;5093032;28;20020;-76
2022/07/04 00:49:33;;;;;;;2.35;0.40;;;20.30;77.50;;;;;;5092623;28;20044;-75
2022/07/04 00:52:00;;;;;;;1.98;0.25;;;20.30;77.30;;;;;;5093238;28;20024;-76
2022/07/04 00:54:29;;;;;;;3.22;0.30;;;20.30;77.30;;;;;;5093119;28;20039;-76
2022/07/04 00:56:55;;;;;;;2.35;0.40;;;20.20;77.30;;;;;;5092788;28;20127;-76
2022/07/04 00:59:22;;;;;;;2.83;0.30;;;20.20;77.30;;;;;;5096400;28;20099;-76
2022/07/04 01:01:48;;;;;;;2.95;0.40;;;20.20;77.40;;;;;;5096703;28;20502;-76
2022/07/04 01:04:14;;;;;;;2.47;0.20;;;20.20;77.40;;;;;;5096615;28;20024;-76
2022/07/04 01:06:39;;;;;;;2.75;0.32;;;20.20;77.50;;;;;;5096791;28;20471;-76
2022/07/04 01:09:05;;;;;;;2.92;0.30;;;20.20;77.50;;;;;;5096487;28;20065;-76
2022/07/04 01:11:31;;;;;;;0.80;0.20;;;20.20;77.50;;;;;;5096705;28;20115;-76
2022/07/04 01:13:58;;;;;;;4.32;0.40;;;20.20;77.40;;;;;;5096500;28;20034;-76
2022/07/04 01:16:25;;;;;;;2.10;0.30;;;20.10;78.00;;;;;;5096307;28;20475;-76
2022/07/04 01:18:52;;;;;;;3.22;0.57;;;20.20;77.50;;;;;;5096641;28;20076;-76
2022/07/04 01:21:18;;;;;;;2.90;0.60;;;20.20;77.40;;;;;;5096533;28;20024;-76
2022/07/04 01:23:44;;;;;;;4.22;0.88;;;20.10;77.40;;;;;;5096459;28;20027;-76
2022/07/04 01:26:09;;;;;;;2.50;0.63;;;20.10;77.40;;;;;;5096451;28;20383;-76
2022/07/04 01:28:35;;;;;;;5.25;0.80;;;20.10;77.40;;;;;;5096223;28;20498;-76
2022/07/04 01:31:01;;;;;;;3.25;0.70;;;20.10;77.40;;;;;;5096189;28;20085;-76
2022/07/04 01:33:27;;;;;;;4.30;0.80;;;20.10;77.40;;;;;;5096187;28;20544;-76
2022/07/04 01:35:53;;;;;;;3.58;0.60;;;20.10;77.60;;;;;;5096012;28;20093;-76
2022/07/04 01:38:19;;;;;;;2.60;0.50;;;20.00;78.00;;;;;;5096076;28;20561;-76
2022/07/04 01:40:45;;;;;;;3.30;0.50;;;20.00;78.20;;;;;;5096307;28;20119;-75
2022/07/04 01:43:10;;;;;;;2.03;0.40;;;20.00;78.40;;;;;;5096026;28;20540;-76
2022/07/04 01:45:39;;;;;;;4.05;0.70;;;20.00;78.70;;;;;;5095592;28;20077;-76
2022/07/04 01:48:11;;;;;;;3.67;0.57;;;20.00;78.80;;;;;;5096087;28;20372;-76
2022/07/04 01:50:37;;;;;;;3.17;0.60;;;20.00;78.90;;;;;;5095764;28;20105;-76
2022/07/04 01:53:03;;;;;;;2.40;0.38;;;20.00;78.90;;;;;;5095692;28;20036;-77
2022/07/04 01:55:29;;;;;;;3.13;0.50;;;19.90;78.80;;;;;;5095908;28;20119;-77
2022/07/04 01:57:55;;;;;;;3.38;0.60;;;20.00;78.80;;;;;;5095945;28;20032;-77
2022/07/04 02:03:05;;;;;;;3.35;0.70;;;19.90;78.70;;;;;;5095672;28;20054;-77
2022/07/04 02:05:31;;;;;;;2.95;0.47;;;20.00;78.70;;;;;;5095749;28;20020;-77
2022/07/04 02:07:56;;;;;;;4.00;0.82;;;19.90;78.70;;;;;;5095536;28;20482;-77
2022/07/04 02:10:22;;;;;;;2.92;0.50;;;20.00;78.70;;;;;;5094580;28;20027;-77
2022/07/04 02:13:03;;;;;;;2.22;0.47;;;19.90;78.70;;;;;;5095370;28;20059;-77
2022/07/04 02:15:33;;;;;;;3.08;0.57;;;19.90;78.80;;;;;;5095179;28;20034;-77
2022/07/04 02:17:59;;;;;;;4.40;0.50;;;19.80;78.90;;;;;;5095286;28;20467;-77
2022/07/04 02:20:25;;;;;;;3.70;0.70;;;19.70;79.20;;;;;;5095193;28;20479;-77
2022/07/04 02:22:51;;;;;;;3.10;0.75;;;19.70;79.50;;;;;;5094886;28;20029;-77
2022/07/04 02:25:17;;;;;;;3.05;0.50;;;19.50;79.80;;;;;;5095110;28;20026;-77
2022/07/04 02:27:43;;;;;;;3.42;0.63;;;19.60;80.00;;;;;;5095430;28;20028;-77
2022/07/04 02:30:09;;;;;;;3.97;0.63;;;19.60;80.00;;;;;;5094982;28;20027;-77
2022/07/04 02:32:35;;;;;;;2.72;0.80;;;19.70;79.90;;;;;;5094892;28;20089;-77
2022/07/04 02:35:02;;;;;;;4.32;0.50;;;19.70;80.00;;;;;;5094821;28;20467;-76
2022/07/04 02:37:28;;;;;;;2.17;0.40;;;19.70;80.00;;;;;;5095064;28;20111;-77
2022/07/04 02:39:53;;;;;;;2.20;0.47;;;19.70;80.00;;;;;;5095176;28;20047;-77
2022/07/04 02:42:19;;;;;;;2.08;0.90;;;19.80;80.50;;;;;;5095056;28;20070;-77
2022/07/04 02:44:45;;;;;;;2.80;0.47;;;19.80;79.80;;;;;;5094710;28;20016;-77
2022/07/04 02:47:11;;;;;;;3.17;0.75;;;19.80;79.80;;;;;;5094808;28;20141;-77
2022/07/04 02:49:37;;;;;;;4.68;0.90;;;19.80;79.80;;;;;;5094572;28;20074;-76
2022/07/04 02:52:03;;;;;;;2.88;0.55;;;19.80;79.70;;;;;;5094541;28;20024;-77
2022/07/04 02:54:28;;;;;;;3.85;0.70;;;19.80;79.70;;;;;;5094811;28;20356;-77
2022/07/04 02:56:54;;;;;;;2.53;0.60;;;19.80;79.70;;;;;;5094420;28;20472;-77
2022/07/04 02:59:20;;;;;;;2.85;1.17;;;19.80;79.80;;;;;;5094431;28;20076;-76
2022/07/04 03:01:45;;;;;;;3.88;1.38;;;19.80;79.80;;;;;;5094457;28;20020;-76
2022/07/04 03:04:11;;;;;;;4.35;1.70;;;19.80;79.80;;;;;;5094593;28;20093;-76
2022/07/04 03:06:36;;;;;;;4.97;2.10;;;19.70;79.90;;;;;;5094534;28;20031;-76
2022/07/04 03:09:02;;;;;;;3.85;1.48;;;19.70;80.20;;;;;;5094079;28;20082;-76
2022/07/04 03:11:28;;;;;;;3.53;1.52;;;19.70;80.30;;;;;;5094610;28;20117;-76
2022/07/04 03:13:53;;;;;;;4.63;2.17;;;19.70;80.40;;;;;;5094192;28;20024;-76
2022/07/04 03:16:19;;;;;;;3.03;1.30;;;19.70;80.60;;;;;;5094603;28;20060;-76
2022/07/04 03:18:45;;;;;;;4.47;1.50;;;19.70;81.30;;;;;;5094501;28;20016;-76
2022/07/04 03:21:10;;;;;;;3.28;1.70;;;19.70;80.70;;;;;;5092945;28;20090;-76
2022/07/04 03:23:36;;;;;;;2.72;1.42;;;19.70;80.70;;;;;;5094293;28;20016;-76
2022/07/04 03:26:02;;;;;;;5.43;2.33;;;19.70;80.90;;;;;;5094305;28;20024;-76
2022/07/04 03:28:28;;;;;;;10.52;3.00;;;19.70;80.90;;;;;;5093944;28;20459;-76
2022/07/04 03:30:54;;;;;;;4.13;2.25;;;19.70;81.10;;;;;;5094014;28;20046;-76
2022/07/04 03:33:19;;;;;;;3.55;2.10;;;19.60;81.20;;;;;;5094049;28;20464;-76
2022/07/04 03:35:45;;;;;;;4.75;2.40;;;19.60;81.40;;;;;;5093584;28;20115;-76
2022/07/04 03:38:11;;;;;;;6.78;2.10;;;19.60;81.50;;;;;;5094036;28;20115;-76
2022/07/04 03:40:38;;;;;;;5.28;2.50;;;19.60;81.60;;;;;;5093746;28;20062;-76
2022/07/04 03:43:07;;;;;;;3.60;2.10;;;19.60;81.70;;;;;;5093682;28;20028;-76
2022/07/04 03:45:33;;;;;;;6.30;2.65;;;19.60;81.90;;;;;;5093943;28;20020;-76
2022/07/04 03:47:59;;;;;;;4.10;1.85;;;19.60;82.10;;;;;;5093823;28;20348;-76
2022/07/04 03:50:25;;;;;;;3.92;2.22;;;19.50;82.30;;;;;;5093240;28;20044;-76
2022/07/04 03:52:51;;;;;;;5.38;2.67;;;19.50;82.40;;;;;;5093570;28;20024;-76
2022/07/04 03:55:16;;;;;;;3.83;1.88;;;19.40;82.50;;;;;;5093539;28;20020;-76
2022/07/04 03:57:42;;;;;;;3.55;2.25;;;19.40;82.90;;;;;;5093496;28;20063;-76
2022/07/04 04:00:09;;;;;;;4.30;1.92;;;19.40;82.90;;;;;;5093680;28;20108;-76
2022/07/04 04:02:36;;;;;;;3.80;2.25;;;19.40;83.10;;;;;;5093644;28;20028;-76
2022/07/04 04:07:46;;;;;;;6.82;3.10;;;19.40;83.30;;;;;;5093659;28;20502;-76
2022/07/04 04:10:12;;;;;;;4.65;2.47;;;19.30;83.50;;;;;;5093415;28;20028;-76
2022/07/04 04:12:38;;;;;;;7.43;3.53;;;19.30;83.70;;;;;;5093659;28;20046;-76
2022/07/04 04:15:03;;;;;;;6.55;3.88;;;19.30;83.90;;;;;;5093152;28;20031;-76
2022/07/04 04:17:29;;;;;;;8.00;4.35;;;19.30;84.00;;;;;;5093356;28;20035;-76
2022/07/04 04:19:55;;;;;;;10.20;4.97;;;19.20;84.50;;;;;;5093269;28;20024;-76
2022/07/04 04:22:20;;;;;;;10.68;4.72;;;19.00;84.90;;;;;;5093246;28;20067;-76
2022/07/04 04:24:46;;;;;;;6.88;4.28;;;18.90;85.00;;;;;;5092977;28;20027;-76
2022/07/04 04:27:12;;;;;;;9.18;4.05;;;18.90;84.90;;;;;;5093463;28;20039;-76
2022/07/04 04:29:38;;;;;;;5.25;4.63;;;18.80;85.30;;;;;;5093072;28;20575;-76
2022/07/04 04:32:03;;;;;;;6.40;4.15;;;18.70;85.30;;;;;;5093157;28;20119;-76
2022/07/04 04:34:29;;;;;;;7.03;4.57;;;18.60;85.50;;;;;;5097463;28;20016;-76
2022/07/04 04:36:55;;;;;;;6.60;3.67;;;18.60;85.60;;;;;;5097076;28;20028;-76
2022/07/04 04:39:20;;;;;;;7.38;2.97;;;18.50;85.80;;;;;;5097200;28;20024;-76
2022/07/04 04:41:46;;;;;;;5.28;3.22;;;18.50;86.10;;;;;;5097255;28;20030;-76
2022/07/04 04:44:11;;;;;;;5.90;2.72;;;18.60;86.30;;;;;;5097099;28;20391;-76
2022/07/04 04:46:37;;;;;;;4.35;2.65;;;18.60;86.30;;;;;;5097169;28;20150;-76
2022/07/04 04:49:02;;;;;;;4.63;2.90;;;18.70;86.40;;;;;;5096960;28;20475;-76
2022/07/04 04:51:28;;;;;;;4.40;2.50;;;18.70;86.20;;;;;;5097162;28;20028;-76
2022/07/04 04:53:54;;;;;;;5.20;3.25;;;18.80;86.30;;;;;;5097229;28;20073;-76
2022/07/04 04:56:19;;;;;;;4.05;2.53;;;18.80;86.30;;;;;;5096508;28;20032;-75
2022/07/04 04:58:45;;;;;;;4.82;2.38;;;18.80;86.30;;;;;;5096806;28;20012;-76
2022/07/04 05:01:10;;;;;;;4.80;2.10;;;18.90;86.30;;;;;;5096634;28;20074;-76
2022/07/04 05:03:36;;;;;;;5.70;2.33;;;18.90;86.40;;;;;;5096979;28;20073;-76
2022/07/04 05:06:01;;;;;;;8.10;2.90;;;18.90;86.30;;;;;;5096599;28;20031;-76
2022/07/04 05:08:27;;;;;;;4.80;2.50;;;19.00;86.20;;;;;;5096889;28;20020;-76
2022/07/04 05:10:53;;;;;;;8.52;2.95;;;19.00;86.20;;;;;;5096555;28;20059;-76
2022/07/04 05:13:19;;;;;;;5.30;2.60;;;19.00;86.30;;;;;;5096228;28;20020;-76
2022/07/04 05:15:46;;;;;;;5.07;2.45;;;18.90;86.20;;;;;;5096628;28;20028;-76
2022/07/04 05:18:11;;;;;;;7.22;3.45;;;18.90;86.10;;;;;;5096643;28;20043;-76
2022/07/04 05:20:37;;;;;;;6.07;3.40;;;18.80;86.50;;;;;;5096582;28;20047;-76
2022/07/04 05:23:03;;;;;;;4.75;2.58;;;18.70;86.90;;;;;;5096509;28;20020;-76
2022/07/04 05:25:28;;;;;;;10.00;3.30;;;18.70;87.70;;;;;;5096497;28;20024;-76
2022/07/04 05:27:54;;;;;;;4.55;2.17;;;18.70;87.80;;;;;;5095914;28;20486;-75
2022/07/04 05:30:20;;;;;;;5.03;2.65;;;18.70;87.80;;;;;;5095993;28;20027;-76
2022/07/04 05:32:45;;;;;;;5.70;2.95;;;18.60;88.00;;;;;;5096346;28;20103;-76
2022/07/04 05:35:11;;;;;;;7.85;2.83;;;18.60;88.70;;;;;;5096338;28;20459;-76
2022/07/04 05:37:36;;;;;;;7.15;2.90;;;18.60;88.70;;;;;;5095807;28;20028;-76
2022/07/04 05:40:05;;;;;;;5.00;2.80;;;18.60;89.70;;;;;;5096083;28;20067;-76
2022/07/04 05:42:31;;;;;;;7.70;2.60;;;18.50;89.90;;;;;;5096093;28;20387;-76
2022/07/04 05:44:57;;;;;;;6.63;2.75;;;18.50;90.00;;;;;;5095018;28;20103;-76
2022/07/04 05:47:24;;;;;;;5.05;1.85;;;18.60;90.30;;;;;;5095762;28;20089;-72
2022/07/04 05:49:50;;;;;;;2.38;0.45;;;18.60;90.30;;;;;;5094565;28;20533;-78
2022/07/04 05:52:16;;;;;;;7.30;2.50;;;18.80;90.10;;;;;;5095896;28;20032;-80
2022/07/04 05:54:42;;;;;;;4.30;1.02;;;19.00;89.60;;;;;;5093803;28;20050;-78
2022/07/04 05:57:07;;;;;;;4.32;1.90;;;19.10;89.30;;;;;;5095639;28;20036;-77
2022/07/04 05:59:33;;;;;;;4.50;1.17;;;19.30;89.10;;;;;;5095005;28;20080;-77
2022/07/04 06:01:59;;;;;;;5.32;1.08;;;19.30;89.10;;;;;;5093825;28;20055;-75
2022/07/04 06:04:24;;;;;;;3.85;1.30;;;19.50;89.10;;;;;;5094163;28;20024;-75
2022/07/04 06:06:50;;;;;;;4.75;1.35;;;19.70;88.60;;;;;;5094033;28;20035;-76
2022/07/04 06:09:16;;;;;;;6.35;2.10;;;19.90;88.20;;;;;;5094586;28;20153;-80
2022/07/04 06:11:42;;;;;;;5.03;1.40;;;20.00;87.80;;;;;;5093613;28;20491;-78
2022/07/04 06:14:07;;;;;;;5.78;1.40;;;20.00;87.80;;;;;;5092376;28;20044;-78
2022/07/04 06:16:33;;;;;;;5.47;1.50;;;20.10;87.90;;;;;;5092578;28;20131;-77
2022/07/04 06:18:58;;;;;;;3.22;0.90;;;20.20;87.30;;;;;;5091798;28;20103;-77
2022/07/04 06:21:24;;;;;;;8.50;1.50;;;20.20;87.50;;;;;;5094326;28;20048;-77
2022/07/04 06:23:49;;;;;;;5.15;0.80;;;20.30;86.70;;;;;;5094782;28;20039;-76
2022/07/04 06:26:15;;;;;;;7.28;1.67;;;20.30;86.50;;;;;;5094321;28;20055;-77
2022/07/04 06:28:41;;;;;;;5.22;1.23;;;20.50;86.10;;;;;;5094065;28;20028;-78
2022/07/04 06:31:06;;;;;;;5.07;0.90;;;20.50;85.60;;;;;;5093811;28;20457;-78
2022/07/04 06:33:32;;;;;;;6.68;2.10;;;20.70;85.50;;;;;;5092434;28;20024;-77
2022/07/04 06:35:58;;;;;;;4.18;1.55;;;20.80;85.20;;;;;;5093878;28;20644;-78
2022/07/04 06:38:29;;;;;;;6.95;2.20;;;20.70;84.90;;;;;;5093375;28;20031;-77
2022/07/04 06:40:57;;;;;;;4.10;1.60;;;20.60;84.40;;;;;;5093658;28;20020;-75
2022/07/04 06:43:23;;;;;;;5.22;1.50;;;20.50;84.70;;;;;;5094940;28;20028;-74
2022/07/04 06:45:49;;;;;;;5.72;2.17;;;20.40;84.70;;;;;;5094740;28;20020;-79
2022/07/04 06:48:15;;;;;;;5.63;1.75;;;20.40;84.60;;;;;;5093544;28;20114;-79
2022/07/04 06:50:40;;;;;;;5.53;1.40;;;20.40;85.00;;;;;;5093121;28;20063;-79
2022/07/04 06:53:08;;;;;;;6.55;1.73;;;20.50;85.20;;;;;;5093432;28;20020;-73
2022/07/04 06:55:33;;;;;;;7.78;2.13;;;20.50;84.90;;;;;;5091895;28;20042;-76
2022/07/04 06:57:59;;;;;;;3.90;1.98;;;20.60;84.80;;;;;;5094088;28;20499;-79
2022/07/04 07:00:25;;;;;;;7.25;1.77;;;20.70;84.80;;;;;;5092933;28;20072;-79
2022/07/04 07:02:50;;;;;;;5.35;0.90;;;20.80;84.70;;;;;;5091804;28;20032;-78
2022/07/04 07:05:16;;;;;;;9.18;2.85;;;20.80;84.50;;;;;;5092056;28;20039;-80
2022/07/04 07:07:42;;;;;;;8.48;2.35;;;21.00;84.20;;;;;;5092871;28;20115;-77
2022/07/04 07:10:08;;;;;;;6.95;2.42;;;21.10;84.10;;;;;;5092846;28;20436;-78
2022/07/04 07:12:34;;;;;;;3.92;1.50;;;21.10;83.80;;;;;;5092954;28;20098;-78
2022/07/04 07:15:00;;;;;;;3.10;1.40;;;21.20;83.70;;;;;;5092627;28;20475;-78
2022/07/04 07:17:26;;;;;;;5.93;1.88;;;21.20;83.60;;;;;;5092486;28;20047;-79
2022/07/04 07:19:52;;;;;;;9.27;2.40;;;21.20;83.40;;;;;;5092310;28;20096;-78
2022/07/04 07:22:18;;;;;;;5.72;1.80;;;21.10;83.40;;;;;;5092605;28;20471;-73
2022/07/04 07:24:44;;;;;;;9.52;3.17;;;21.00;83.50;;;;;;5091027;28;20491;-76
2022/07/04 07:27:10;;;;;;;7.78;2.20;;;20.90;83.70;;;;;;5091241;28;20020;-79
2022/07/04 07:29:36;;;;;;;10.50;3.47;;;20.80;84.20;;;;;;5092373;28;20093;-80
2022/07/04 07:32:02;;;;;;;12.65;2.92;;;20.70;84.50;;;;;;5091986;28;20028;-79
2022/07/04 07:34:28;;;;;;;6.25;1.85;;;20.60;85.10;;;;;;5092427;28;20039;-79
2022/07/04 07:36:54;;;;;;;6.63;2.38;;;20.50;85.40;;;;;;5091768;28;20031;-79
2022/07/04 07:39:20;;;;;;;9.35;2.95;;;20.50;85.70;;;;;;5089741;28;20331;-79
2022/07/04 07:41:46;;;;;;;7.60;2.72;;;20.50;85.80;;;;;;5091620;28;20031;-79
2022/07/04 07:44:11;;;;;;;7.82;2.85;;;20.60;86.00;;;;;;5092116;28;20020;-80
2022/07/04 07:46:37;;;;;;;8.95;3.22;;;20.60;86.40;;;;;;5091997;28;20028;-80
2022/07/04 07:49:03;;;;;;;8.15;3.53;;;20.70;86.20;;;;;;5092096;28;20032;-81
2022/07/04 07:51:29;;;;;;;7.43;1.92;;;20.80;86.20;;;;;;5091620;28;20514;-74
2022/07/04 07:53:55;;;;;;;11.20;4.13;;;21.00;86.00;;;;;;5092227;28;20387;-79
2022/07/04 07:56:20;;;;;;;8.32;3.25;;;21.10;85.70;;;;;;5092001;28;20032;-80
2022/07/04 07:58:46;;;;;;;11.63;4.47;;;21.00;85.80;;;;;;5091731;28;20413;-81
2022/07/04 08:01:12;;;;;;;10.52;3.22;;;21.00;86.30;;;;;;5091886;28;20413;-81
2022/07/04 08:06:21;;;;;;;7.18;2.90;;;21.20;86.60;;;;;;5089530;28;20031;-80
2022/07/04 08:08:47;;;;;;;14.02;3.63;;;21.50;86.60;;;;;;5090860;28;20066;-79
2022/07/04 08:11:13;;;;;;;11.82;3.40;;;21.50;86.80;;;;;;5092460;28;20356;-81
2022/07/04 08:13:39;;;;;;;6.85;3.20;;;21.50;86.20;;;;;;5093581;28;20039;-81
2022/07/04 08:16:06;;;;;;;13.50;3.72;;;21.40;86.40;;;;;;5093182;28;20032;-82
2022/07/04 08:18:32;;;;;;;7.50;3.45;;;21.40;86.70;;;;;;5091364;28;20055;-81
2022/07/04 08:20:58;;;;;;;12.85;3.88;;;21.60;86.80;;;;;;5091948;28;20028;-80
2022/07/04 08:23:26;;;;;;;10.23;3.50;;;21.60;87.00;;;;;;5091302;28;20045;-76
2022/07/04 08:25:51;;;;;;;8.63;3.80;;;21.50;87.10;;;;;;5090666;28;20020;-76
2022/07/04 08:28:17;;;;;;;12.35;4.30;;;21.40;87.10;;;;;;5092134;28;20046;-76
2022/07/04 08:30:43;;;;;;;11.45;4.65;;;21.30;87.00;;;;;;5090500;28;20024;-77
2022/07/04 08:33:08;;;;;;;12.98;3.80;;;21.30;87.00;;;;;;5090282;28;20443;-76
2022/07/04 08:35:34;;;;;;;9.60;4.32;;;21.30;87.20;;;;;;5091022;28;20028;-76
2022/07/04 08:38:00;;;;;;;14.50;4.50;;;21.40;87.10;;;;;;5091671;28;20383;-77
2022/07/04 08:40:30;;;;;;;10.77;4.07;;;21.30;86.70;;;;;;5091732;28;20429;-81
2022/07/04 08:42:56;;;;;;;11.00;3.70;;;21.30;87.00;;;;;;5091235;28;20020;-81
2022/07/04 08:45:32;;;;;;;10.90;4.13;;;21.30;87.30;;;;;;5091422;28;20020;-78
2022/07/04 08:48:03;;;;;;;15.02;5.22;;;21.30;87.30;;;;;;5091897;28;20364;-79
2022/07/04 08:50:38;;;;;;;11.25;4.82;;;21.30;86.90;;;;;;5091490;28;20066;-79
2022/07/04 08:53:10;;;;;;;13.43;4.18;;;21.30;87.40;;;;;;5091357;28;20497;-80
2022/07/04 08:58:31;;;;;;;10.43;3.70;;;21.30;87.80;;;;;;5091165;28;20038;-80
2022/07/04 09:01:05;;;;;;;14.65;4.25;;;21.40;87.60;;;;;;5091641;28;20016;-77
2022/07/04 09:03:32;;;;;;;10.63;3.45;;;21.40;87.30;;;;;;5088934;28;20052;-77
2022/07/04 09:05:58;;;;;;;10.30;4.30;;;21.40;87.60;;;;;;5091654;28;20085;-81
2022/07/04 09:08:24;;;;;;;6.72;2.88;;;21.50;88.00;;;;;;5091197;28;20438;-81
2022/07/04 09:10:51;;;;;;;11.50;4.00;;;21.40;88.40;;;;;;5091323;28;20483;-80
2022/07/04 09:13:18;;;;;;;15.10;3.70;;;21.30;88.20;;;;;;5091214;28;20024;-79
2022/07/04 09:15:47;;;;;;;9.88;3.22;;;21.40;88.70;;;;;;5091382;28;20028;-82
2022/07/04 09:18:32;;;;;;;10.52;3.92;;;21.50;88.00;;;;;;5090935;28;20020;-79
2022/07/04 09:21:08;;;;;;;7.82;3.13;;;21.70;86.60;;;;;;5095013;28;20016;-79
2022/07/04 09:23:38;;;;;;;8.43;3.13;;;21.90;86.30;;;;;;5095026;28;20028;-80
2022/07/04 09:26:07;;;;;;;5.65;2.63;;;21.90;85.50;;;;;;5094923;28;20035;-76
2022/07/04 09:28:32;;;;;;;7.57;4.07;;;21.90;85.20;;;;;;5094821;28;20026;-76
2022/07/04 09:30:58;;;;;;;10.32;3.97;;;21.80;84.80;;;;;;5094462;28;20016;-74
2022/07/04 09:33:45;;;;;;;9.68;3.85;;;21.70;84.80;;;;;;5094824;28;20028;-77
2022/07/04 09:36:12;;;;;;;11.13;4.18;;;21.60;85.40;;;;;;5094809;28;20040;-76
2022/07/04 09:38:38;;;;;;;10.70;4.30;;;21.50;85.50;;;;;;5091806;28;20020;-77
2022/07/04 09:44:05;;;;;;;15.82;5.03;;;21.20;86.80;;;;;;5094527;28;20489;-77
2022/07/04 09:46:34;;;;;;;8.95;4.43;;;21.10;87.70;;;;;;5094852;28;20058;-80
2022/07/04 09:49:00;;;;;;;10.25;3.30;;;21.20;87.90;;;;;;5093615;28;20046;-80
2022/07/04 09:51:36;;;;;;;10.13;3.33;;;21.50;88.10;;;;;;5094418;28;20111;-76
2022/07/04 09:54:31;;;;;;;9.32;2.30;;;21.80;87.60;;;;;;5094677;28;20111;-79
2022/07/04 09:56:59;;;;;;;7.60;2.38;;;21.90;83.40;;;;;;5085566;28;20064;-82
2022/07/04 09:59:27;;;;;;;13.20;2.65;;;21.80;83.40;;;;;;5094477;28;20786;-81
2022/07/04 10:02:09;;;;;;;8.23;1.75;;;21.80;83.70;;;;;;5092041;28;20020;-79
2022/07/04 10:04:50;;;;;;;9.38;1.75;;;21.80;84.20;;;;;;5091888;28;20066;-80
2022/07/04 10:07:35;;;;;;;7.72;1.77;;;22.00;83.80;;;;;;5095322;28;20100;-80
2022/07/04 10:10:24;;;;;;;9.30;2.00;;;22.20;83.30;;;;;;5093949;28;20073;-80
2022/07/04 10:12:52;;;;;;;5.32;1.52;;;22.40;82.20;;;;;;5093113;28;20055;-76
2022/07/04 10:15:18;;;;;;;5.75;1.30;;;22.60;81.10;;;;;;5093670;28;20380;-76
2022/07/04 10:17:44;;;;;;;5.00;1.00;;;22.70;79.50;;;;;;5091037;28;20055;-75
2022/07/04 10:20:11;;;;;;;4.90;0.95;;;22.80;79.80;;;;;;5094140;28;20491;-73
2022/07/04 10:22:37;;;;;;;4.85;0.93;;;22.90;76.10;;;;;;5094118;28;20085;-73
2022/07/04 10:25:04;;;;;;;6.88;1.25;;;23.00;76.00;;;;;;5093285;28;20027;-74
2022/07/04 10:27:31;;;;;;;4.65;0.80;;;23.20;76.20;;;;;;5093041;28;20063;-74
2022/07/04 10:29:58;;;;;;;7.68;0.77;;;23.30;76.30;;;;;;5093321;28;20107;-73
2022/07/04 10:32:25;;;;;;;6.60;1.00;;;23.40;74.30;;;;;;5093127;28;20081;-74
2022/07/04 10:34:51;;;;;;;4.93;0.55;;;23.40;72.90;;;;;;5093278;28;20020;-74
2022/07/04 10:37:17;;;;;;;7.30;0.65;;;23.20;72.30;;;;;;5093043;28;20086;-74
2022/07/04 10:39:43;;;;;;;4.90;0.82;;;23.00;72.00;;;;;;5093668;28;20103;-74
2022/07/04 10:42:08;;;;;;;5.40;0.70;;;22.80;73.10;;;;;;5092994;28;20107;-75
2022/07/04 10:44:37;;;;;;;5.30;0.70;;;22.80;72.90;;;;;;5093590;28;20043;-75
2022/07/04 10:47:04;;;;;;;4.10;0.75;;;22.60;72.80;;;;;;5088849;28;20109;-75
2022/07/04 10:49:31;;;;;;;5.78;0.85;;;22.40;73.50;;;;;;5092918;28;20048;-74
2022/07/04 10:52:11;;;;;;;4.28;0.70;;;22.30;74.80;;;;;;5093712;28;20024;-75
2022/07/04 10:54:39;;;;;;;8.70;1.55;;;22.20;75.90;;;;;;5092964;28;20475;-74
2022/07/04 10:57:15;;;;;;;6.55;1.13;;;22.20;76.70;;;;;;5092614;28;20054;-74
2022/07/04 11:00:04;;;;;;;3.60;0.80;;;22.10;76.60;;;;;;5093461;28;20360;-74
2022/07/04 11:02:31;;;;;;;5.65;0.70;;;22.10;76.20;;;;;;5093915;28;20024;-75
2022/07/04 11:05:09;;;;;;;8.45;0.50;;;22.10;77.00;;;;;;5092382;28;20383;-73
2022/07/04 11:07:40;;;;;;;3.45;0.65;;;22.10;76.70;;;;;;5092499;28;20028;-72
2022/07/04 11:12:55;;;;;;;4.50;0.60;;;22.20;76.50;;;;;;5093072;28;20482;-71
2022/07/04 11:15:32;;;;;;;4.43;0.60;;;22.30;76.20;;;;;;5090704;28;20295;-71
2022/07/04 11:18:00;;;;;;;3.58;0.85;;;22.50;75.60;;;;;;5090633;28;20059;-72
2022/07/04 11:20:28;;;;;;;4.47;0.85;;;22.70;72.90;;;;;;5092696;28;20082;-72
2022/07/04 11:23:03;;;;;;;5.53;0.85;;;22.90;71.80;;;;;;5092669;28;20093;-73
2022/07/04 11:25:30;;;;;;;3.10;0.57;;;23.00;71.20;;;;;;5092418;28;20027;-73
2022/07/04 11:27:55;;;;;;;3.28;0.50;;;23.20;71.20;;;;;;5092616;28;20111;-73
2022/07/04 11:30:21;;;;;;;2.67;0.60;;;23.30;71.90;;;;;;5092341;28;21392;-72
2022/07/04 11:32:46;;;;;;;5.07;0.60;;;23.60;72.60;;;;;;5089706;28;20431;-75
2022/07/04 11:35:12;;;;;;;3.30;0.50;;;23.80;72.80;;;;;;5092747;28;20478;-75
2022/07/04 11:37:38;;;;;;;1.90;0.50;;;24.00;71.90;;;;;;5093200;28;20031;-74
2022/07/04 11:45:49;;;;;;;4.85;0.80;;;24.00;69.50;;;;;;5092412;28;20027;-72
2022/07/04 11:48:21;;;;;;;5.75;0.88;;;24.00;70.20;;;;;;5091976;28;20024;-73
2022/07/04 11:50:47;;;;;;;6.03;0.50;;;24.10;70.00;;;;;;5090040;28;20028;-73
2022/07/04 11:53:12;;;;;;;3.60;0.50;;;24.20;70.00;;;;;;5092043;28;20089;-73
2022/07/04 11:55:38;;;;;;;5.15;0.50;;;24.20;67.60;;;;;;5091716;28;20040;-74
2022/07/04 11:58:04;;;;;;;2.08;0.50;;;24.20;68.90;;;;;;5092063;28;20028;-73
2022/07/04 12:00:34;;;;;;;4.68;0.50;;;24.40;67.20;;;;;;5092579;28;20020;-73
2022/07/04 12:03:01;;;;;;;3.38;0.50;;;24.40;66.20;;;;;;5092133;28;20020;-75
2022/07/04 12:05:27;;;;;;;3.65;1.10;;;24.30;66.90;;;;;;5089105;28;20024;-74
2022/07/04 12:07:53;;;;;;;2.13;0.30;;;24.10;66.80;;;;;;5091823;28;20111;-74
2022/07/04 12:10:25;;;;;;;2.65;0.60;;;24.20;66.90;;;;;;5091938;28;20103;-73
2022/07/04 12:13:14;;;;;;;2.63;0.40;;;24.20;67.10;;;;;;5092048;28;20024;-79
2022/07/04 12:15:48;;;;;;;3.20;0.50;;;24.30;65.60;;;;;;5089306;28;20035;-79
2022/07/04 12:18:18;;;;;;;3.55;0.80;;;24.50;65.10;;;;;;5089854;28;20074;-78
2022/07/04 12:20:45;;;;;;;3.78;0.57;;;24.50;65.30;;;;;;5089017;28;20554;-80
2022/07/04 12:23:11;;;;;;;3.13;0.70;;;24.50;65.70;;;;;;5090626;28;20115;-79
2022/07/04 12:25:38;;;;;;;3.83;0.70;;;24.60;65.00;;;;;;5090152;28;20218;-80
2022/07/04 12:28:12;;;;;;;3.20;0.85;;;24.70;64.60;;;;;;5090721;28;20074;-78
2022/07/04 12:30:58;;;;;;;2.70;0.43;;;24.80;63.90;;;;;;5090843;28;20097;-76
2022/07/04 12:33:29;;;;;;;3.63;0.75;;;24.90;64.20;;;;;;5090443;28;20514;-76
2022/07/04 12:36:00;;;;;;;3.13;0.43;;;25.00;64.20;;;;;;5090458;28;20043;-75
2022/07/04 12:38:29;;;;;;;2.85;0.68;;;25.10;64.50;;;;;;5090937;28;20048;-75
2022/07/04 12:40:59;;;;;;;2.38;0.60;;;25.10;63.40;;;;;;5090849;28;20099;-76
2022/07/04 12:43:46;;;;;;;1.88;0.40;;;25.20;63.10;;;;;;5090260;28;20467;-76
2022/07/04 12:46:24;;;;;;;2.30;0.52;;;25.30;61.00;;;;;;5089028;28;20114;-76
2022/07/04 12:48:51;;;;;;;2.35;0.40;;;25.20;61.10;;;;;;5089535;28;20040;-76
2022/07/04 12:51:22;;;;;;;1.75;0.30;;;25.20;60.80;;;;;;5091292;28;20031;-76
2022/07/04 12:53:50;;;;;;;1.30;0.30;;;25.30;60.90;;;;;;5092478;28;20020;-79
2022/07/04 12:56:36;;;;;;;1.15;0.30;;;25.30;60.20;;;;;;5095535;28;20027;-77
2022/07/04 12:59:10;;;;;;;3.45;0.40;;;25.30;58.20;;;;;;5094899;28;20380;-77
2022/07/04 13:01:36;;;;;;;1.38;0.30;;;25.30;58.20;;;;;;5095385;28;20502;-77
2022/07/04 13:04:03;;;;;;;1.75;0.32;;;25.20;58.50;;;;;;5095491;28;20097;-76
2022/07/04 13:06:29;;;;;;;1.02;0.30;;;25.20;59.20;;;;;;5094558;28;20035;-73
2022/07/04 13:08:56;;;;;;;4.13;0.50;;;25.40;60.70;;;;;;5095098;28;20494;-74